createdAt,value
2019-05-01T00:00:16.259Z,0.00
2019-05-01T00:00:48.175Z,0.00
2019-05-01T00:01:23.623Z,0.00
2019-05-01T00:01:58.991Z,0.00
2019-05-01T00:02:34.716Z,0.00
2019-05-01T00:03:10.004Z,0.00
2019-05-01T00:03:45.130Z,0.00
2019-05-01T00:04:20.646Z,0.00
2019-05-01T00:04:56.247Z,0.00
2019-05-01T00:05:31.719Z,0.00
2019-05-01T00:06:07.036Z,0.00
2019-05-01T00:06:42.358Z,0.00
2019-05-01T00:07:17.757Z,0.00
2019-05-01T00:07:53.138Z,0.00
2019-05-01T00:08:28.537Z,0.00
2019-05-01T00:09:03.909Z,0.00
2019-05-01T00:09:39.325Z,0.00
2019-05-01T00:10:14.497Z,0.00
2019-05-01T00:10:49.715Z,0.00
2019-05-01T00:11:24.938Z,0.00
2019-05-01T00:12:00.053Z,0.00
2019-05-01T00:12:35.454Z,0.00
2019-05-01T00:13:10.793Z,0.00
2019-05-01T00:13:46.059Z,0.00
2019-05-01T00:14:21.370Z,0.00
2019-05-01T00:14:57.037Z,0.00
2019-05-01T00:15:32.357Z,0.00
2019-05-01T00:16:07.977Z,0.00
2019-05-01T00:16:43.174Z,0.00
2019-05-01T00:17:18.367Z,0.00
2019-05-01T00:17:53.673Z,0.00
2019-05-01T00:18:28.863Z,0.00
2019-05-01T00:19:04.188Z,0.00
2019-05-01T00:19:39.463Z,0.00
2019-05-01T00:20:14.770Z,0.00
2019-05-01T00:20:50.048Z,0.00
2019-05-01T00:21:25.483Z,0.00
2019-05-01T00:22:00.764Z,0.00
2019-05-01T00:22:35.995Z,0.00
2019-05-01T00:23:11.517Z,0.00
2019-05-01T00:23:46.759Z,0.00
2019-05-01T00:24:22.147Z,0.00
2019-05-01T00:24:57.464Z,0.00
2019-05-01T00:25:32.741Z,0.00
2019-05-01T00:26:07.941Z,0.00
2019-05-01T00:26:42.955Z,0.00
2019-05-01T00:27:18.358Z,0.00
2019-05-01T00:27:53.648Z,0.00
2019-05-01T00:28:29.056Z,0.00
2019-05-01T00:29:04.334Z,0.00
2019-05-01T00:29:39.657Z,0.00
2019-05-01T00:30:14.935Z,0.00
2019-05-01T00:30:50.251Z,0.00
2019-05-01T00:31:25.557Z,0.00
2019-05-01T00:32:00.879Z,0.00
2019-05-01T00:32:36.165Z,0.00
2019-05-01T00:33:11.273Z,0.00
2019-05-01T00:33:46.656Z,0.00
2019-05-01T00:34:21.978Z,0.00
2019-05-01T00:34:57.374Z,0.00
2019-05-01T00:35:32.983Z,0.00
2019-05-01T00:36:08.390Z,0.00
2019-05-01T00:36:43.992Z,0.00
2019-05-01T00:37:19.282Z,0.00
2019-05-01T00:37:54.984Z,0.00
2019-05-01T00:38:30.660Z,0.00
2019-05-01T00:39:06.256Z,0.00
2019-05-01T00:39:41.364Z,0.00
2019-05-01T00:40:16.763Z,0.00
2019-05-01T00:40:51.838Z,0.00
2019-05-01T00:41:27.083Z,0.00
2019-05-01T00:42:02.379Z,0.00
2019-05-01T00:42:37.790Z,0.00
2019-05-01T00:43:13.295Z,0.00
2019-05-01T00:43:48.613Z,0.00
2019-05-01T00:44:23.708Z,0.00
2019-05-01T00:44:59.783Z,0.00
2019-05-01T00:45:36.731Z,0.00
2019-05-01T00:46:12.683Z,0.00
2019-05-01T00:46:48.246Z,0.00
2019-05-01T00:47:24.033Z,0.00
2019-05-01T00:47:59.371Z,0.00
2019-05-01T00:48:35.027Z,0.00
2019-05-01T00:49:10.348Z,0.00
2019-05-01T00:49:45.650Z,0.00
2019-05-01T00:50:21.763Z,0.00
2019-05-01T00:50:56.959Z,0.00
2019-05-01T00:51:32.473Z,0.00
2019-05-01T00:52:07.694Z,0.00
2019-05-01T00:52:43.174Z,0.00
2019-05-01T00:53:18.588Z,0.00
2019-05-01T00:53:53.765Z,0.00
2019-05-01T00:54:29.067Z,0.00
2019-05-01T00:55:04.785Z,0.00
2019-05-01T00:55:39.910Z,0.00
2019-05-01T00:56:15.596Z,0.00
2019-05-01T00:56:51.008Z,0.00
2019-05-01T00:57:26.353Z,0.00
2019-05-01T00:58:01.708Z,0.00
2019-05-01T00:58:37.192Z,0.00
2019-05-01T00:59:12.797Z,0.00
2019-05-01T00:59:48.289Z,0.00
2019-05-01T01:00:23.432Z,0.00
2019-05-01T01:00:58.704Z,0.00
2019-05-01T01:01:33.847Z,0.00
2019-05-01T01:02:09.323Z,0.00
2019-05-01T01:02:44.723Z,0.00
2019-05-01T01:03:19.909Z,0.00
2019-05-01T01:03:55.315Z,0.00
2019-05-01T01:04:30.502Z,0.00
2019-05-01T01:05:05.811Z,0.00
2019-05-01T01:05:40.905Z,0.00
2019-05-01T01:06:16.115Z,0.00
2019-05-01T01:06:51.525Z,0.00
2019-05-01T01:07:26.957Z,0.00
2019-05-01T01:08:02.528Z,0.00
2019-05-01T01:08:37.748Z,0.00
2019-05-01T01:09:12.829Z,0.00
2019-05-01T01:09:48.165Z,0.00
2019-05-01T01:10:23.556Z,0.00
2019-05-01T01:10:59.204Z,0.00
2019-05-01T01:11:34.876Z,0.00
2019-05-01T01:12:10.576Z,0.00
2019-05-01T01:12:45.567Z,0.00
2019-05-01T01:13:20.880Z,0.00
2019-05-01T01:13:56.175Z,0.00
2019-05-01T01:14:31.693Z,0.00
2019-05-01T01:15:07.068Z,0.00
2019-05-01T01:15:42.371Z,0.00
2019-05-01T01:16:17.660Z,0.00
2019-05-01T01:16:53.173Z,0.00
2019-05-01T01:17:28.482Z,0.00
2019-05-01T01:18:03.907Z,0.00
2019-05-01T01:18:39.085Z,0.00
2019-05-01T01:19:14.617Z,0.00
2019-05-01T01:19:49.907Z,0.00
2019-05-01T01:20:25.541Z,0.00
2019-05-01T01:21:00.636Z,0.00
2019-05-01T01:21:35.851Z,0.00
2019-05-01T01:22:10.957Z,0.00
2019-05-01T01:22:46.473Z,0.00
2019-05-01T01:23:21.767Z,0.00
2019-05-01T01:23:57.389Z,0.00
2019-05-01T01:24:32.666Z,0.00
2019-05-01T01:25:08.081Z,0.00
2019-05-01T01:25:43.362Z,0.00
2019-05-01T01:26:18.886Z,0.00
2019-05-01T01:26:54.361Z,0.00
2019-05-01T01:27:29.928Z,0.00
2019-05-01T01:28:05.311Z,0.00
2019-05-01T01:28:40.936Z,0.00
2019-05-01T01:29:16.049Z,0.00
2019-05-01T01:29:51.261Z,0.00
2019-05-01T01:30:27.040Z,0.00
2019-05-01T01:31:02.365Z,0.00
2019-05-01T01:31:37.751Z,0.00
2019-05-01T01:32:12.908Z,0.00
2019-05-01T01:32:48.188Z,0.00
2019-05-01T01:33:23.617Z,0.00
2019-05-01T01:33:59.023Z,0.00
2019-05-01T01:34:34.546Z,0.00
2019-05-01T01:35:09.948Z,0.00
2019-05-01T01:35:45.451Z,0.00
2019-05-01T01:36:20.860Z,0.00
2019-05-01T01:36:56.169Z,0.00
2019-05-01T01:37:31.483Z,0.00
2019-05-01T01:38:06.900Z,0.00
2019-05-01T01:38:42.195Z,0.00
2019-05-01T01:39:17.594Z,0.00
2019-05-01T01:39:55.745Z,0.00
2019-05-01T01:40:31.264Z,0.00
2019-05-01T01:41:06.653Z,0.00
2019-05-01T01:41:41.781Z,0.00
2019-05-01T01:42:17.310Z,0.00
2019-05-01T01:42:52.729Z,0.00
2019-05-01T01:43:28.014Z,0.00
2019-05-01T01:44:03.637Z,0.00
2019-05-01T01:44:39.045Z,0.00
2019-05-01T01:45:14.478Z,0.00
2019-05-01T01:45:49.827Z,0.00
2019-05-01T01:46:25.019Z,0.00
2019-05-01T01:47:00.231Z,0.00
2019-05-01T01:47:35.758Z,0.00
2019-05-01T01:48:11.445Z,0.00
2019-05-01T01:48:46.873Z,0.00
2019-05-01T01:49:22.065Z,0.00
2019-05-01T01:49:57.480Z,0.00
2019-05-01T01:50:32.959Z,0.00
2019-05-01T01:51:08.382Z,0.00
2019-05-01T01:51:43.774Z,0.00
2019-05-01T01:52:19.112Z,0.00
2019-05-01T01:52:54.592Z,0.00
2019-05-01T01:53:30.115Z,0.00
2019-05-01T01:54:05.505Z,0.00
2019-05-01T01:54:40.716Z,0.00
2019-05-01T01:55:16.215Z,0.00
2019-05-01T01:55:51.623Z,0.00
2019-05-01T01:56:27.007Z,0.00
2019-05-01T01:57:02.233Z,0.00
2019-05-01T01:57:37.650Z,0.00
2019-05-01T01:58:13.185Z,0.00
2019-05-01T01:58:48.256Z,0.00
2019-05-01T01:59:23.564Z,0.00
2019-05-01T01:59:58.960Z,0.00
2019-05-01T02:00:34.465Z,0.00
2019-05-01T02:01:10.030Z,0.00
2019-05-01T02:01:45.397Z,0.00
2019-05-01T02:02:20.616Z,0.00
2019-05-01T02:02:56.130Z,0.00
2019-05-01T02:03:31.616Z,0.00
2019-05-01T02:04:06.832Z,0.00
2019-05-01T02:04:42.247Z,0.00
2019-05-01T02:05:17.462Z,0.00
2019-05-01T02:05:52.927Z,0.00
2019-05-01T02:06:28.360Z,0.00
2019-05-01T02:07:03.738Z,0.00
2019-05-01T02:07:39.095Z,0.00
2019-05-01T02:08:14.681Z,0.00
2019-05-01T02:08:56.199Z,0.00
2019-05-01T02:09:25.284Z,0.00
2019-05-01T02:10:00.585Z,0.00
2019-05-01T02:10:42.585Z,0.00
2019-05-01T02:11:11.193Z,0.00
2019-05-01T02:11:46.781Z,0.00
2019-05-01T02:12:22.279Z,0.00
2019-05-01T02:12:57.575Z,0.00
2019-05-01T02:13:32.687Z,0.00
2019-05-01T02:14:08.076Z,0.00
2019-05-01T02:14:43.590Z,0.00
2019-05-01T02:15:18.666Z,0.00
2019-05-01T02:15:54.294Z,0.00
2019-05-01T02:16:29.879Z,0.00
2019-05-01T02:17:05.014Z,0.00
2019-05-01T02:17:40.563Z,0.00
2019-05-01T02:18:15.872Z,0.00
2019-05-01T02:18:51.161Z,0.00
2019-05-01T02:19:26.606Z,0.00
2019-05-01T02:20:01.907Z,0.00
2019-05-01T02:20:37.222Z,0.00
2019-05-01T02:21:12.506Z,0.00
2019-05-01T02:21:47.711Z,0.00
2019-05-01T02:22:23.114Z,0.00
2019-05-01T02:22:58.713Z,0.00
2019-05-01T02:23:33.995Z,0.00
2019-05-01T02:24:09.821Z,0.00
2019-05-01T02:24:45.220Z,0.00
2019-05-01T02:25:20.781Z,0.00
2019-05-01T02:25:56.070Z,0.00
2019-05-01T02:26:31.394Z,0.00
2019-05-01T02:27:06.779Z,0.00
2019-05-01T02:27:42.252Z,0.00
2019-05-01T02:28:17.337Z,0.00
2019-05-01T02:28:52.751Z,0.00
2019-05-01T02:29:27.933Z,0.00
2019-05-01T02:30:03.070Z,0.00
2019-05-01T02:30:38.346Z,0.00
2019-05-01T02:31:26.983Z,0.00
2019-05-01T02:31:48.958Z,0.00
2019-05-01T02:32:24.409Z,0.00
2019-05-01T02:33:00.756Z,0.00
2019-05-01T02:33:36.351Z,0.00
2019-05-01T02:34:11.846Z,0.00
2019-05-01T02:34:47.066Z,0.00
2019-05-01T02:35:22.856Z,0.00
2019-05-01T02:35:58.072Z,0.00
2019-05-01T02:36:33.361Z,0.00
2019-05-01T02:37:08.908Z,0.00
2019-05-01T02:37:44.601Z,0.00
2019-05-01T02:38:19.826Z,0.00
2019-05-01T02:38:55.215Z,0.00
2019-05-01T02:39:30.634Z,0.00
2019-05-01T02:40:06.014Z,0.00
2019-05-01T02:40:41.523Z,0.00
2019-05-01T02:41:16.805Z,0.00
2019-05-01T02:41:52.109Z,0.00
2019-05-01T02:42:27.423Z,0.00
2019-05-01T02:43:02.953Z,0.00
2019-05-01T02:43:38.256Z,0.00
2019-05-01T02:44:13.729Z,0.00
2019-05-01T02:44:49.316Z,0.00
2019-05-01T02:45:24.730Z,0.00
2019-05-01T02:45:59.911Z,0.00
2019-05-01T02:46:35.350Z,0.00
2019-05-01T02:47:10.675Z,0.00
2019-05-01T02:47:45.890Z,0.00
2019-05-01T02:48:21.388Z,0.00
2019-05-01T02:48:57.116Z,0.00
2019-05-01T02:49:32.296Z,0.00
2019-05-01T02:50:07.525Z,0.00
2019-05-01T02:50:42.709Z,0.00
2019-05-01T02:51:18.337Z,0.00
2019-05-01T02:51:54.031Z,0.00
2019-05-01T02:52:29.579Z,0.00
2019-05-01T02:53:04.765Z,0.00
2019-05-01T02:53:40.189Z,0.00
2019-05-01T02:54:15.679Z,0.00
2019-05-01T02:54:51.303Z,0.00
2019-05-01T02:55:26.675Z,0.00
2019-05-01T02:56:01.905Z,0.00
2019-05-01T02:56:37.181Z,0.00
2019-05-01T02:57:12.629Z,0.00
2019-05-01T02:57:48.007Z,0.00
2019-05-01T02:58:23.437Z,0.00
2019-05-01T02:58:58.838Z,0.00
2019-05-01T02:59:34.184Z,0.00
2019-05-01T03:00:09.774Z,0.00
2019-05-01T03:00:45.286Z,0.00
2019-05-01T03:01:20.683Z,0.00
2019-05-01T03:01:55.802Z,0.00
2019-05-01T03:02:31.225Z,0.00
2019-05-01T03:03:06.637Z,0.00
2019-05-01T03:03:42.015Z,0.00
2019-05-01T03:04:17.353Z,0.00
2019-05-01T03:04:52.729Z,0.00
2019-05-01T03:05:28.245Z,0.00
2019-05-01T03:06:03.535Z,0.00
2019-05-01T03:06:38.764Z,0.00
2019-05-01T03:07:14.066Z,0.00
2019-05-01T03:07:49.166Z,0.00
2019-05-01T03:08:24.853Z,0.00
2019-05-01T03:09:00.256Z,0.00
2019-05-01T03:09:35.330Z,0.00
2019-05-01T03:10:10.652Z,0.00
2019-05-01T03:10:46.038Z,0.00
2019-05-01T03:11:21.463Z,0.00
2019-05-01T03:11:56.757Z,0.00
2019-05-01T03:12:32.211Z,0.00
2019-05-01T03:13:07.586Z,0.00
2019-05-01T03:13:43.000Z,0.00
2019-05-01T03:14:18.684Z,0.00
2019-05-01T03:14:53.913Z,0.00
2019-05-01T03:15:29.081Z,0.00
2019-05-01T03:16:04.430Z,0.00
2019-05-01T03:16:40.129Z,0.00
2019-05-01T03:17:15.466Z,0.00
2019-05-01T03:17:50.862Z,0.00
2019-05-01T03:18:26.072Z,0.00
2019-05-01T03:19:01.356Z,0.00
2019-05-01T03:19:36.582Z,0.00
2019-05-01T03:20:11.743Z,0.00
2019-05-01T03:20:47.287Z,0.00
2019-05-01T03:21:22.463Z,0.00
2019-05-01T03:21:57.789Z,0.00
2019-05-01T03:22:32.915Z,0.00
2019-05-01T03:23:08.531Z,0.00
2019-05-01T03:23:43.999Z,0.00
2019-05-01T03:24:19.327Z,0.00
2019-05-01T03:24:54.722Z,0.00
2019-05-01T03:25:30.042Z,0.00
2019-05-01T03:26:05.534Z,0.00
2019-05-01T03:26:40.859Z,0.00
2019-05-01T03:27:16.163Z,0.00
2019-05-01T03:27:51.480Z,0.00
2019-05-01T03:28:26.856Z,0.00
2019-05-01T03:29:02.172Z,0.00
2019-05-01T03:29:37.262Z,0.00
2019-05-01T03:30:13.026Z,0.00
2019-05-01T03:30:48.434Z,0.00
2019-05-01T03:31:23.560Z,0.00
2019-05-01T03:32:15.704Z,0.00
2019-05-01T03:32:34.077Z,0.00
2019-05-01T03:33:09.260Z,0.00
2019-05-01T03:33:44.478Z,0.00
2019-05-01T03:34:19.828Z,0.00
2019-05-01T03:34:55.027Z,0.00
2019-05-01T03:35:30.294Z,0.00
2019-05-01T03:36:05.913Z,0.00
2019-05-01T03:36:41.302Z,0.00
2019-05-01T03:37:16.856Z,0.00
2019-05-01T03:37:52.211Z,0.00
2019-05-01T03:38:27.545Z,0.00
2019-05-01T03:39:03.021Z,0.00
2019-05-01T03:39:38.341Z,0.00
2019-05-01T03:40:13.841Z,0.00
2019-05-01T03:40:49.677Z,0.00
2019-05-01T03:41:25.183Z,0.00
2019-05-01T03:42:00.400Z,0.00
2019-05-01T03:42:35.732Z,0.00
2019-05-01T03:43:10.960Z,0.00
2019-05-01T03:43:46.367Z,0.00
2019-05-01T03:44:21.928Z,0.00
2019-05-01T03:44:57.011Z,0.00
2019-05-01T03:45:34.343Z,0.00
2019-05-01T03:46:07.810Z,0.00
2019-05-01T03:46:43.118Z,0.00
2019-05-01T03:47:18.749Z,0.00
2019-05-01T03:47:54.176Z,0.00
2019-05-01T03:48:29.352Z,0.00
2019-05-01T03:49:04.672Z,0.00
2019-05-01T03:49:40.369Z,0.00
2019-05-01T03:50:15.690Z,0.00
2019-05-01T03:50:50.977Z,0.00
2019-05-01T03:51:26.105Z,0.00
2019-05-01T03:52:01.582Z,0.00
2019-05-01T03:52:36.942Z,0.00
2019-05-01T03:53:12.422Z,0.00
2019-05-01T03:53:47.746Z,0.00
2019-05-01T03:54:23.048Z,0.00
2019-05-01T03:54:58.361Z,0.00
2019-05-01T03:55:33.840Z,0.00
2019-05-01T03:56:09.191Z,0.00
2019-05-01T03:56:44.568Z,0.00
2019-05-01T03:57:20.028Z,0.00
2019-05-01T03:57:55.291Z,0.00
2019-05-01T03:58:30.729Z,0.00
2019-05-01T03:59:05.815Z,0.00
2019-05-01T03:59:41.338Z,0.00
2019-05-01T04:00:16.530Z,0.00
2019-05-01T04:00:51.964Z,0.00
2019-05-01T04:01:27.155Z,0.00
2019-05-01T04:02:02.581Z,0.00
2019-05-01T04:02:37.910Z,0.00
2019-05-01T04:03:13.435Z,0.00
2019-05-01T04:03:48.592Z,0.00
2019-05-01T04:04:24.017Z,0.00
2019-05-01T04:04:59.316Z,0.00
2019-05-01T04:05:34.644Z,0.00
2019-05-01T04:06:09.930Z,0.00
2019-05-01T04:06:45.247Z,0.00
2019-05-01T04:07:20.754Z,0.00
2019-05-01T04:07:56.102Z,0.00
2019-05-01T04:08:31.395Z,0.00
2019-05-01T04:09:06.925Z,0.00
2019-05-01T04:09:42.215Z,0.00
2019-05-01T04:10:17.643Z,0.00
2019-05-01T04:10:52.727Z,0.00
2019-05-01T04:11:28.141Z,0.00
2019-05-01T04:12:03.524Z,0.00
2019-05-01T04:12:38.950Z,0.00
2019-05-01T04:13:14.052Z,0.00
2019-05-01T04:13:49.387Z,0.00
2019-05-01T04:14:24.980Z,0.00
2019-05-01T04:15:00.201Z,0.00
2019-05-01T04:15:35.388Z,0.00
2019-05-01T04:16:10.708Z,0.00
2019-05-01T04:16:45.717Z,0.00
2019-05-01T04:17:21.128Z,0.00
2019-05-01T04:17:56.403Z,0.00
2019-05-01T04:18:31.884Z,0.00
2019-05-01T04:19:06.958Z,0.00
2019-05-01T04:19:42.185Z,0.00
2019-05-01T04:20:17.662Z,0.00
2019-05-01T04:20:53.080Z,0.00
2019-05-01T04:21:28.482Z,0.00
2019-05-01T04:22:03.785Z,0.00
2019-05-01T04:22:38.876Z,0.00
2019-05-01T04:23:14.114Z,0.00
2019-05-01T04:23:49.802Z,0.00
2019-05-01T04:24:25.407Z,0.00
2019-05-01T04:25:00.924Z,0.00
2019-05-01T04:25:36.525Z,0.00
2019-05-01T04:26:11.804Z,0.00
2019-05-01T04:26:47.052Z,0.00
2019-05-01T04:27:22.525Z,0.00
2019-05-01T04:27:58.884Z,5.00
2019-05-01T04:28:33.249Z,5.00
2019-05-01T04:29:08.557Z,5.00
2019-05-01T04:29:43.854Z,5.00
2019-05-01T04:30:19.073Z,5.00
2019-05-01T04:30:54.564Z,5.00
2019-05-01T04:31:29.919Z,5.00
2019-05-01T04:32:05.070Z,5.00
2019-05-01T04:32:52.108Z,5.00
2019-05-01T04:33:15.621Z,5.00
2019-05-01T04:33:50.731Z,5.00
2019-05-01T04:34:25.918Z,5.00
2019-05-01T04:35:01.262Z,5.00
2019-05-01T04:35:36.960Z,5.00
2019-05-01T04:36:12.377Z,5.00
2019-05-01T04:36:47.866Z,5.00
2019-05-01T04:37:22.986Z,5.00
2019-05-01T04:37:58.358Z,5.00
2019-05-01T04:38:33.840Z,5.00
2019-05-01T04:39:09.003Z,5.00
2019-05-01T04:39:44.526Z,5.00
2019-05-01T04:40:19.889Z,5.00
2019-05-01T04:40:55.248Z,5.00
2019-05-01T04:41:30.958Z,5.00
2019-05-01T04:42:06.379Z,5.00
2019-05-01T04:42:41.562Z,5.00
2019-05-01T04:43:17.111Z,5.00
2019-05-01T04:43:52.591Z,5.00
2019-05-01T04:44:28.103Z,5.00
2019-05-01T04:45:03.190Z,5.00
2019-05-01T04:45:38.616Z,5.00
2019-05-01T04:46:13.616Z,5.00
2019-05-01T04:46:48.927Z,5.00
2019-05-01T04:47:24.325Z,11.00
2019-05-01T04:47:59.559Z,11.00
2019-05-01T04:48:35.043Z,11.00
2019-05-01T04:49:10.255Z,11.00
2019-05-01T04:49:45.339Z,11.00
2019-05-01T04:50:20.771Z,11.00
2019-05-01T04:50:55.955Z,11.00
2019-05-01T04:51:31.565Z,11.00
2019-05-01T04:52:06.938Z,11.00
2019-05-01T04:52:50.311Z,11.00
2019-05-01T04:53:25.805Z,11.00
2019-05-01T04:54:01.114Z,11.00
2019-05-01T04:54:36.403Z,11.00
2019-05-01T04:55:11.721Z,11.00
2019-05-01T04:55:47.108Z,11.00
2019-05-01T04:56:30.756Z,11.00
2019-05-01T04:57:05.947Z,11.00
2019-05-01T04:57:41.160Z,11.00
2019-05-01T04:58:16.571Z,11.00
2019-05-01T04:58:51.997Z,11.00
2019-05-01T04:59:27.182Z,11.00
2019-05-01T05:00:02.512Z,11.00
2019-05-01T05:00:37.695Z,11.00
2019-05-01T05:01:13.416Z,11.00
2019-05-01T05:01:48.793Z,11.00
2019-05-01T05:02:24.025Z,11.00
2019-05-01T05:03:05.047Z,11.00
2019-05-01T05:03:34.651Z,11.00
2019-05-01T05:04:09.944Z,11.00
2019-05-01T05:04:45.634Z,16.00
2019-05-01T05:05:21.016Z,16.00
2019-05-01T05:05:56.321Z,16.00
2019-05-01T05:06:32.007Z,16.00
2019-05-01T05:07:07.230Z,16.00
2019-05-01T05:07:42.532Z,16.00
2019-05-01T05:08:17.975Z,11.00
2019-05-01T05:09:00.886Z,11.00
2019-05-01T05:09:36.128Z,11.00
2019-05-01T05:10:11.420Z,16.00
2019-05-01T05:10:47.345Z,16.00
2019-05-01T05:11:23.027Z,16.00
2019-05-01T05:11:58.635Z,16.00
2019-05-01T05:12:34.027Z,16.00
2019-05-01T05:13:09.258Z,16.00
2019-05-01T05:13:46.851Z,16.00
2019-05-01T05:14:20.155Z,16.00
2019-05-01T05:14:55.519Z,16.00
2019-05-01T05:15:31.127Z,16.00
2019-05-01T05:16:06.309Z,16.00
2019-05-01T05:16:41.739Z,16.00
2019-05-01T05:17:17.148Z,16.00
2019-05-01T05:17:52.570Z,16.00
2019-05-01T05:18:27.889Z,16.00
2019-05-01T05:19:03.099Z,16.00
2019-05-01T05:19:38.788Z,16.00
2019-05-01T05:20:13.899Z,16.00
2019-05-01T05:20:49.494Z,16.00
2019-05-01T05:21:24.737Z,16.00
2019-05-01T05:21:59.826Z,16.00
2019-05-01T05:22:35.540Z,16.00
2019-05-01T05:23:10.749Z,16.00
2019-05-01T05:23:45.967Z,22.00
2019-05-01T05:24:21.988Z,22.00
2019-05-01T05:24:57.309Z,22.00
2019-05-01T05:25:32.684Z,22.00
2019-05-01T05:26:07.802Z,22.00
2019-05-01T05:26:43.192Z,22.00
2019-05-01T05:27:18.605Z,22.00
2019-05-01T05:27:54.111Z,22.00
2019-05-01T05:28:31.322Z,22.00
2019-05-01T05:29:05.535Z,22.00
2019-05-01T05:29:40.836Z,22.00
2019-05-01T05:30:16.045Z,22.00
2019-05-01T05:30:51.266Z,22.00
2019-05-01T05:31:26.462Z,22.00
2019-05-01T05:32:11.433Z,22.00
2019-05-01T05:32:47.310Z,22.00
2019-05-01T05:33:37.037Z,22.00
2019-05-01T05:34:12.324Z,22.00
2019-05-01T05:34:55.469Z,22.00
2019-05-01T05:35:30.963Z,22.00
2019-05-01T05:36:06.278Z,22.00
2019-05-01T05:36:41.765Z,22.00
2019-05-01T05:37:17.088Z,22.00
2019-05-01T05:37:52.767Z,22.00
2019-05-01T05:38:28.324Z,28.00
2019-05-01T05:39:03.719Z,28.00
2019-05-01T05:39:39.140Z,28.00
2019-05-01T05:40:14.327Z,28.00
2019-05-01T05:40:49.541Z,28.00
2019-05-01T05:46:25.000Z,33.00
2019-05-01T05:47:00.156Z,33.00
2019-05-01T05:47:35.812Z,33.00
2019-05-01T05:48:11.323Z,33.00
2019-05-01T05:48:46.686Z,33.00
2019-05-01T05:49:22.183Z,33.00
2019-05-01T05:49:57.449Z,33.00
2019-05-01T05:50:32.748Z,33.00
2019-05-01T05:51:08.032Z,33.00
2019-05-01T05:51:43.141Z,33.00
2019-05-01T05:52:18.512Z,33.00
2019-05-01T05:52:53.731Z,33.00
2019-05-01T05:53:29.217Z,33.00
2019-05-01T05:54:04.725Z,39.00
2019-05-01T05:54:40.210Z,39.00
2019-05-01T05:55:15.417Z,39.00
2019-05-01T05:55:50.951Z,39.00
2019-05-01T05:56:26.392Z,39.00
2019-05-01T05:57:02.053Z,39.00
2019-05-01T05:57:37.262Z,39.00
2019-05-01T05:58:12.946Z,39.00
2019-05-01T05:58:48.441Z,39.00
2019-05-01T05:59:23.499Z,39.00
2019-05-01T05:59:58.817Z,39.00
2019-05-01T06:00:34.279Z,39.00
2019-05-01T06:01:09.495Z,39.00
2019-05-01T06:01:44.660Z,39.00
2019-05-01T06:02:19.881Z,39.00
2019-05-01T06:02:54.965Z,39.00
2019-05-01T06:03:31.344Z,39.00
2019-05-01T06:04:05.581Z,45.00
2019-05-01T06:04:40.718Z,45.00
2019-05-01T06:05:16.102Z,45.00
2019-05-01T06:05:51.607Z,45.00
2019-05-01T06:06:26.878Z,39.00
2019-05-01T06:07:02.294Z,45.00
2019-05-01T06:07:37.584Z,45.00
2019-05-01T06:08:12.911Z,45.00
2019-05-01T06:08:48.279Z,45.00
2019-05-01T06:09:23.785Z,45.00
2019-05-01T06:09:59.043Z,45.00
2019-05-01T06:10:34.461Z,45.00
2019-05-01T06:11:09.442Z,45.00
2019-05-01T06:11:44.845Z,45.00
2019-05-01T06:12:20.448Z,45.00
2019-05-01T06:12:55.636Z,45.00
2019-05-01T06:13:31.046Z,45.00
2019-05-01T06:14:06.366Z,45.00
2019-05-01T06:14:41.444Z,45.00
2019-05-01T06:15:16.652Z,45.00
2019-05-01T06:15:52.025Z,45.00
2019-05-01T06:16:27.339Z,45.00
2019-05-01T06:17:02.718Z,45.00
2019-05-01T06:17:38.044Z,50.00
2019-05-01T06:18:13.472Z,50.00
2019-05-01T06:18:48.784Z,50.00
2019-05-01T06:19:24.156Z,50.00
2019-05-01T06:19:59.561Z,50.00
2019-05-01T06:20:37.277Z,50.00
2019-05-01T06:21:12.711Z,50.00
2019-05-01T06:21:45.528Z,50.00
2019-05-01T06:22:20.824Z,50.00
2019-05-01T06:22:56.304Z,50.00
2019-05-01T06:23:34.004Z,50.00
2019-05-01T06:24:07.028Z,56.00
2019-05-01T06:24:42.414Z,56.00
2019-05-01T06:25:22.570Z,56.00
2019-05-01T06:25:54.308Z,56.00
2019-05-01T06:26:32.236Z,56.00
2019-05-01T06:27:03.504Z,56.00
2019-05-01T06:27:38.983Z,56.00
2019-05-01T06:28:14.331Z,56.00
2019-05-01T06:28:49.905Z,56.00
2019-05-01T06:29:25.404Z,56.00
2019-05-01T06:30:00.687Z,50.00
2019-05-01T06:30:36.096Z,50.00
2019-05-01T06:31:11.480Z,56.00
2019-05-01T06:31:46.938Z,56.00
2019-05-01T06:32:22.516Z,56.00
2019-05-01T06:32:58.022Z,56.00
2019-05-01T06:33:43.849Z,56.00
2019-05-01T06:34:08.683Z,56.00
2019-05-01T06:34:44.168Z,56.00
2019-05-01T06:35:19.501Z,61.00
2019-05-01T06:35:54.837Z,61.00
2019-05-01T06:36:30.366Z,61.00
2019-05-01T06:37:05.755Z,61.00
2019-05-01T06:37:41.176Z,61.00
2019-05-01T06:38:16.690Z,67.00
2019-05-01T06:38:52.010Z,67.00
2019-05-01T06:39:27.175Z,67.00
2019-05-01T06:40:02.684Z,67.00
2019-05-01T06:40:37.867Z,67.00
2019-05-01T06:41:13.090Z,67.00
2019-05-01T06:41:48.365Z,67.00
2019-05-01T06:42:23.725Z,73.00
2019-05-01T06:42:59.031Z,73.00
2019-05-01T06:43:34.543Z,78.00
2019-05-01T06:44:09.715Z,78.00
2019-05-01T06:44:44.838Z,78.00
2019-05-01T06:45:20.047Z,78.00
2019-05-01T06:45:55.358Z,78.00
2019-05-01T06:46:30.660Z,78.00
2019-05-01T06:47:06.110Z,73.00
2019-05-01T06:47:43.135Z,73.00
2019-05-01T06:48:17.839Z,73.00
2019-05-01T06:48:53.680Z,73.00
2019-05-01T06:49:29.274Z,78.00
2019-05-01T06:50:05.839Z,78.00
2019-05-01T06:50:41.574Z,78.00
2019-05-01T06:51:17.916Z,73.00
2019-05-01T06:51:53.311Z,73.00
2019-05-01T06:52:24.955Z,78.00
2019-05-01T06:52:59.845Z,84.00
2019-05-01T06:53:36.167Z,84.00
2019-05-01T06:54:11.172Z,78.00
2019-05-01T06:54:47.704Z,78.00
2019-05-01T06:55:22.511Z,73.00
2019-05-01T06:55:57.105Z,73.00
2019-05-01T06:56:32.531Z,73.00
2019-05-01T06:57:07.894Z,73.00
2019-05-01T06:57:44.146Z,78.00
2019-05-01T06:58:20.465Z,84.00
2019-05-01T06:58:55.325Z,84.00
2019-05-01T06:59:31.457Z,101.00
2019-05-01T07:00:08.066Z,106.00
2019-05-01T07:00:43.087Z,106.00
2019-05-01T07:01:18.826Z,95.00
2019-05-01T07:01:53.379Z,95.00
2019-05-01T07:02:30.007Z,95.00
2019-05-01T07:03:01.216Z,101.00
2019-05-01T07:03:40.702Z,106.00
2019-05-01T07:04:14.117Z,112.00
2019-05-01T07:04:47.447Z,112.00
2019-05-01T07:05:22.748Z,123.00
2019-05-01T07:05:58.072Z,123.00
2019-05-01T07:06:33.437Z,118.00
2019-05-01T07:07:23.979Z,106.00
2019-05-01T07:07:47.951Z,101.00
2019-05-01T07:08:24.843Z,101.00
2019-05-01T07:08:54.641Z,101.00
2019-05-01T07:09:30.151Z,106.00
2019-05-01T07:10:05.815Z,106.00
2019-05-01T07:10:44.033Z,106.00
2019-05-01T07:11:16.707Z,101.00
2019-05-01T07:11:52.593Z,95.00
2019-05-01T07:12:28.488Z,95.00
2019-05-01T07:13:05.125Z,95.00
2019-05-01T07:13:40.021Z,95.00
2019-05-01T07:14:16.469Z,101.00
2019-05-01T07:14:50.874Z,106.00
2019-05-01T07:15:26.706Z,106.00
2019-05-01T07:16:00.520Z,106.00
2019-05-01T07:16:38.047Z,101.00
2019-05-01T07:17:13.581Z,95.00
2019-05-01T07:17:47.738Z,95.00
2019-05-01T07:18:24.074Z,101.00
2019-05-01T07:18:58.076Z,101.00
2019-05-01T07:19:31.085Z,95.00
2019-05-01T07:20:06.505Z,90.00
2019-05-01T07:20:41.985Z,90.00
2019-05-01T07:21:17.077Z,84.00
2019-05-01T07:21:52.551Z,84.00
2019-05-01T07:22:28.045Z,84.00
2019-05-01T07:23:03.427Z,84.00
2019-05-01T07:23:38.982Z,84.00
2019-05-01T07:24:14.273Z,84.00
2019-05-01T07:24:49.672Z,84.00
2019-05-01T07:25:24.851Z,84.00
2019-05-01T07:26:00.154Z,84.00
2019-05-01T07:26:35.328Z,84.00
2019-05-01T07:27:10.943Z,84.00
2019-05-01T07:27:46.418Z,84.00
2019-05-01T07:28:21.630Z,90.00
2019-05-01T07:28:56.731Z,90.00
2019-05-01T07:29:32.981Z,90.00
2019-05-01T07:30:07.340Z,90.00
2019-05-01T07:30:42.854Z,90.00
2019-05-01T07:31:17.948Z,95.00
2019-05-01T07:31:53.164Z,95.00
2019-05-01T07:32:28.844Z,101.00
2019-05-01T07:33:04.151Z,95.00
2019-05-01T07:33:39.564Z,95.00
2019-05-01T07:34:16.701Z,95.00
2019-05-01T07:34:50.324Z,90.00
2019-05-01T07:35:26.049Z,90.00
2019-05-01T07:36:01.453Z,90.00
2019-05-01T07:36:37.156Z,95.00
2019-05-01T07:37:12.230Z,90.00
2019-05-01T07:37:47.646Z,90.00
2019-05-01T07:38:23.422Z,90.00
2019-05-01T07:38:58.887Z,90.00
2019-05-01T07:39:34.053Z,95.00
2019-05-01T07:40:09.165Z,101.00
2019-05-01T07:40:44.740Z,101.00
2019-05-01T07:41:19.972Z,112.00
2019-05-01T07:41:55.059Z,112.00
2019-05-01T07:42:30.185Z,112.00
2019-05-01T07:43:05.562Z,123.00
2019-05-01T07:43:41.059Z,123.00
2019-05-01T07:44:16.368Z,123.00
2019-05-01T07:44:51.882Z,129.00
2019-05-01T07:45:27.363Z,151.00
2019-05-01T07:46:03.088Z,168.00
2019-05-01T07:46:38.572Z,174.00
2019-05-01T07:47:13.787Z,168.00
2019-05-01T07:47:49.179Z,168.00
2019-05-01T07:48:24.509Z,163.00
2019-05-01T07:48:59.815Z,157.00
2019-05-01T07:49:35.144Z,157.00